Time;durP1;ratioP1;P1;durP2;ratioP2;P2;SDS_P1;SDS_P2;PMS_P1;PMS_P2;Temp;Humidity;BMP_temperature;BMP_pressure;BME280_temperature;BME280_humidity;BME280_pressure;Samples;Min_cycle;Max_cycle;Signal;HPM_P1;HPM_P2
2021/12/03 00:01:28;;;;;;;4.88;1.67;;;1.30;99.90;;;;;;5011452;28;20052;-71
2021/12/03 00:03:54;;;;;;;6.03;1.40;;;1.40;99.90;;;;;;5023611;28;20505;-71
2021/12/03 00:06:21;;;;;;;2.33;1.17;;;2.30;99.90;;;;;;5004701;28;20520;-70
2021/12/03 00:08:47;;;;;;;7.30;1.35;;;1.90;99.90;;;;;;5030456;28;20402;-70
2021/12/03 00:11:14;;;;;;;4.65;1.23;;;1.60;99.90;;;;;;5008972;28;20045;-70
2021/12/03 00:13:41;;;;;;;2.67;1.30;;;1.30;99.90;;;;;;5014768;28;20124;-70
2021/12/03 00:16:07;;;;;;;4.82;1.63;;;1.60;99.90;;;;;;5021675;28;20053;-70
2021/12/03 00:18:33;;;;;;;1.48;1.20;;;1.50;99.90;;;;;;5008619;28;20048;-70
2021/12/03 00:21:03;;;;;;;3.30;1.15;;;1.40;99.90;;;;;;5013713;28;20050;-72
2021/12/03 00:23:30;;;;;;;5.38;1.45;;;1.80;99.90;;;;;;5005156;28;20125;-71
2021/12/03 00:25:59;;;;;;;5.35;1.70;;;1.60;99.90;;;;;;5035530;28;20053;-70
2021/12/03 00:28:25;;;;;;;7.13;1.60;;;1.50;99.90;;;;;;5032907;28;20486;-70
2021/12/03 00:30:51;;;;;;;3.45;1.48;;;2.00;99.90;;;;;;5021779;28;20041;-71
2021/12/03 00:33:16;;;;;;;4.95;1.35;;;1.50;99.90;;;;;;5017771;28;20045;-69
2021/12/03 00:35:42;;;;;;;6.53;2.63;;;1.60;99.90;;;;;;5021307;28;20052;-70
2021/12/03 00:38:08;;;;;;;7.68;1.65;;;1.90;99.90;;;;;;5035581;28;20456;-70
2021/12/03 00:40:39;;;;;;;7.15;1.40;;;1.60;99.90;;;;;;5035782;28;20410;-70
2021/12/03 00:43:05;;;;;;;5.13;1.98;;;1.60;99.90;;;;;;5039474;28;20048;-71
2021/12/03 00:45:32;;;;;;;4.38;1.80;;;1.50;99.90;;;;;;5039255;28;20465;-71
2021/12/03 00:47:59;;;;;;;6.15;1.95;;;1.50;99.90;;;;;;5035621;28;20051;-70
2021/12/03 00:50:25;;;;;;;6.18;2.10;;;2.40;99.90;;;;;;5023065;28;20539;-70
2021/12/03 00:52:52;;;;;;;5.28;2.00;;;1.50;99.90;;;;;;5038834;28;20051;-72
2021/12/03 00:55:20;;;;;;;8.23;2.40;;;2.50;99.90;;;;;;5036031;28;20421;-70
2021/12/03 00:57:45;;;;;;;3.55;1.92;;;1.70;99.90;;;;;;5040952;28;20049;-70
2021/12/03 01:00:23;;;;;;;3.35;1.80;;;1.50;99.90;;;;;;5019564;28;20055;-70
2021/12/03 01:02:50;;;;;;;10.20;2.08;;;1.50;99.90;;;;;;5035106;28;20049;-70
2021/12/03 01:05:16;;;;;;;7.28;2.45;;;1.50;99.90;;;;;;5036096;28;20375;-70
2021/12/03 01:07:42;;;;;;;5.53;2.95;;;1.50;99.90;;;;;;5033559;28;20131;-71
2021/12/03 01:10:09;;;;;;;7.00;2.40;;;1.70;99.90;;;;;;5018205;28;20240;-70
2021/12/03 01:12:37;;;;;;;6.20;2.55;;;1.60;99.90;;;;;;5038496;28;20118;-70
2021/12/03 01:15:06;;;;;;;6.20;2.08;;;1.70;99.90;;;;;;5035528;28;20055;-70
2021/12/03 01:17:32;;;;;;;6.68;2.20;;;1.60;99.90;;;;;;5039340;28;20574;-70
2021/12/03 01:19:59;;;;;;;4.68;1.60;;;2.50;99.90;;;;;;5020975;28;20079;-70
2021/12/03 01:22:25;;;;;;;5.35;2.08;;;2.30;99.90;;;;;;5019899;28;20091;-70
2021/12/03 01:24:51;;;;;;;9.38;2.55;;;1.70;99.90;;;;;;4998268;28;20053;-70
2021/12/03 01:27:16;;;;;;;8.50;2.42;;;1.80;99.90;;;;;;5039355;28;20044;-70
2021/12/03 01:29:42;;;;;;;4.40;2.05;;;2.10;99.90;;;;;;5001052;28;20045;-71
2021/12/03 01:32:08;;;;;;;6.82;2.20;;;2.70;99.90;;;;;;4998848;28;20040;-71
2021/12/03 01:34:34;;;;;;;7.00;2.83;;;1.80;99.90;;;;;;5015245;28;20045;-70
2021/12/03 01:37:00;;;;;;;5.57;2.40;;;1.80;99.90;;;;;;5031602;28;20048;-70
2021/12/03 01:39:25;;;;;;;3.45;2.40;;;1.70;99.90;;;;;;5037028;28;20053;-70
2021/12/03 01:41:51;;;;;;;6.93;2.90;;;1.80;99.90;;;;;;5021329;28;20547;-70
2021/12/03 01:44:17;;;;;;;6.85;2.63;;;2.30;99.90;;;;;;5034332;28;20615;-70
2021/12/03 01:46:42;;;;;;;5.70;2.60;;;1.70;99.90;;;;;;5008021;28;20547;-70
2021/12/03 01:49:12;;;;;;;8.20;3.33;;;1.80;99.90;;;;;;5018561;28;20048;-70
2021/12/03 01:51:38;;;;;;;6.32;2.90;;;1.60;99.90;;;;;;5040482;28;20083;-70
2021/12/03 01:54:03;;;;;;;6.40;2.50;;;1.80;99.90;;;;;;5036325;28;20041;-71
2021/12/03 01:56:29;;;;;;;6.10;3.42;;;1.70;99.90;;;;;;5036954;28;20389;-70
2021/12/03 01:58:55;;;;;;;5.88;2.85;;;1.80;99.90;;;;;;5020334;28;20107;-70
2021/12/03 02:01:26;;;;;;;5.78;2.92;;;1.70;99.90;;;;;;5021926;28;20203;-70
2021/12/03 02:04:00;;;;;;;5.65;2.55;;;1.80;99.90;;;;;;5018336;28;20044;-70
2021/12/03 02:06:27;;;;;;;7.70;3.15;;;2.20;99.90;;;;;;5036749;28;20122;-71
2021/12/03 02:08:54;;;;;;;7.68;2.97;;;2.30;99.90;;;;;;5033907;28;20056;-70
2021/12/03 02:11:20;;;;;;;8.13;3.53;;;1.80;99.90;;;;;;5021236;28;20401;-71
2021/12/03 02:13:47;;;;;;;6.57;3.20;;;2.20;99.90;;;;;;5020983;28;20053;-70
2021/12/03 02:16:14;;;;;;;6.35;2.72;;;1.80;99.90;;;;;;5035922;28;20443;-70
2021/12/03 02:18:40;;;;;;;6.35;3.25;;;1.80;99.90;;;;;;5035702;28;20498;-71
2021/12/03 02:21:07;;;;;;;7.57;3.58;;;1.80;99.90;;;;;;5038819;28;20502;-71
2021/12/03 02:23:34;;;;;;;8.90;3.90;;;1.80;99.90;;;;;;5035892;28;20063;-70
2021/12/03 02:26:00;;;;;;;7.85;4.03;;;2.80;99.90;;;;;;4999676;28;20142;-71
2021/12/03 02:28:30;;;;;;;10.57;3.05;;;1.70;99.90;;;;;;5033266;28;20045;-70
2021/12/03 02:30:56;;;;;;;6.55;3.20;;;1.60;99.90;;;;;;5018431;28;20044;-70
2021/12/03 02:33:22;;;;;;;6.85;3.00;;;1.60;99.90;;;;;;5034607;28;20417;-72
2021/12/03 02:35:49;;;;;;;5.55;3.10;;;2.60;99.90;;;;;;5037692;28;20529;-71
2021/12/03 02:38:20;;;;;;;7.00;3.75;;;1.70;99.90;;;;;;5030021;28;20049;-71
2021/12/03 02:40:47;;;;;;;8.75;4.00;;;1.80;99.90;;;;;;5033081;28;20142;-71
2021/12/03 02:43:14;;;;;;;10.10;4.03;;;1.80;99.90;;;;;;5037614;28;20044;-70
2021/12/03 02:45:40;;;;;;;9.63;4.05;;;1.80;99.90;;;;;;5025931;28;20045;-71
2021/12/03 02:48:06;;;;;;;10.73;4.43;;;2.30;99.90;;;;;;5035869;28;20398;-71
2021/12/03 02:50:32;;;;;;;11.32;4.72;;;1.90;99.90;;;;;;5033882;28;20098;-71
2021/12/03 02:52:58;;;;;;;18.77;4.63;;;1.80;99.90;;;;;;5017769;28;20068;-71
2021/12/03 02:55:25;;;;;;;14.07;4.90;;;1.80;99.90;;;;;;5035282;28;20044;-71
2021/12/03 02:57:51;;;;;;;11.63;4.78;;;2.20;99.90;;;;;;5034171;28;20099;-71
2021/12/03 03:00:21;;;;;;;11.82;5.15;;;1.90;99.90;;;;;;5035775;28;20041;-71
2021/12/03 03:02:47;;;;;;;12.90;5.03;;;2.60;99.90;;;;;;5034618;28;20052;-71
2021/12/03 03:05:15;;;;;;;10.65;4.20;;;1.90;99.90;;;;;;5036233;28;20493;-70
2021/12/03 03:07:41;;;;;;;9.45;4.70;;;1.90;99.90;;;;;;5003073;28;20048;-70
2021/12/03 03:10:10;;;;;;;13.68;5.03;;;2.50;99.90;;;;;;5017737;28;20059;-71
2021/12/03 03:12:40;;;;;;;10.80;4.75;;;1.90;99.90;;;;;;5034495;28;20048;-71
2021/12/03 03:15:07;;;;;;;14.43;5.00;;;1.90;99.90;;;;;;5015918;28;20045;-70
2021/12/03 03:17:33;;;;;;;8.85;5.22;;;1.80;99.90;;;;;;5018473;28;20098;-71
2021/12/03 03:20:00;;;;;;;13.45;5.25;;;1.80;99.90;;;;;;5030932;28;20041;-72
2021/12/03 03:22:27;;;;;;;11.73;5.30;;;1.80;99.90;;;;;;5040637;28;20044;-71
2021/12/03 03:24:54;;;;;;;12.52;5.22;;;2.20;99.90;;;;;;5015417;28;20084;-71
2021/12/03 03:27:21;;;;;;;12.38;5.82;;;1.80;99.90;;;;;;5035282;28;20041;-71
2021/12/03 03:29:48;;;;;;;17.25;7.53;;;1.60;99.90;;;;;;5019365;28;20442;-70
2021/12/03 03:32:15;;;;;;;18.00;8.02;;;1.60;99.90;;;;;;5038266;28;20458;-70
2021/12/03 03:34:41;;;;;;;20.33;8.48;;;2.30;99.90;;;;;;5021813;28;20450;-70
2021/12/03 03:37:07;;;;;;;21.40;8.40;;;1.60;99.90;;;;;;5037458;28;20124;-70
2021/12/03 03:39:33;;;;;;;21.20;9.88;;;2.00;99.90;;;;;;5038128;28;20482;-70
2021/12/03 03:41:59;;;;;;;25.65;10.65;;;1.60;99.90;;;;;;5034934;28;20040;-70
2021/12/03 03:44:25;;;;;;;26.42;10.93;;;1.60;99.90;;;;;;5066220;28;20045;-70
2021/12/03 03:46:53;;;;;;;23.52;10.00;;;1.50;99.90;;;;;;5027293;28;20045;-70
2021/12/03 03:49:24;;;;;;;27.58;12.38;;;2.00;99.90;;;;;;5040619;28;20064;-70
2021/12/03 03:51:51;;;;;;;29.80;13.40;;;2.10;99.90;;;;;;5025168;28;20410;-70
2021/12/03 03:54:18;;;;;;;35.13;14.57;;;1.80;99.90;;;;;;5018202;28;20052;-69
2021/12/03 03:56:44;;;;;;;36.88;15.82;;;2.30;99.90;;;;;;5046906;28;20048;-70
2021/12/03 03:59:10;;;;;;;38.08;15.82;;;1.90;99.90;;;;;;5044812;28;20094;-69
2021/12/03 04:01:36;;;;;;;35.25;17.58;;;1.60;99.90;;;;;;5057121;28;20052;-69
2021/12/03 04:04:02;;;;;;;36.72;17.98;;;2.30;99.90;;;;;;5020122;28;20509;-69
2021/12/03 04:06:28;;;;;;;40.28;19.80;;;1.60;99.90;;;;;;5035521;28;20456;-69
2021/12/03 04:08:53;;;;;;;38.65;19.80;;;1.70;99.90;;;;;;5031597;28;20056;-70
2021/12/03 04:11:22;;;;;;;40.97;19.95;;;2.20;99.90;;;;;;5041091;28;20044;-70
2021/12/03 04:13:48;;;;;;;41.30;19.70;;;1.90;99.90;;;;;;5036904;28;20478;-70
2021/12/03 04:16:14;;;;;;;39.85;19.25;;;1.60;99.90;;;;;;5035911;28;20048;-70
2021/12/03 04:18:40;;;;;;;35.28;18.30;;;1.70;99.90;;;;;;5045562;28;20037;-70
2021/12/03 04:21:06;;;;;;;33.08;13.70;;;1.90;99.90;;;;;;5047673;28;20126;-69
2021/12/03 04:23:31;;;;;;;36.63;19.35;;;2.60;99.90;;;;;;5033951;28;20048;-69
2021/12/03 04:25:57;;;;;;;30.65;15.60;;;2.20;99.90;;;;;;5033199;28;20482;-69
2021/12/03 04:28:25;;;;;;;31.77;15.07;;;1.80;99.90;;;;;;5046900;28;20072;-70
2021/12/03 04:30:51;;;;;;;34.97;18.95;;;1.80;99.90;;;;;;5051578;28;20045;-69
2021/12/03 04:33:17;;;;;;;37.58;19.42;;;2.10;99.90;;;;;;5047482;28;20076;-70
2021/12/03 04:35:44;;;;;;;42.88;18.23;;;1.90;99.90;;;;;;5045231;28;20051;-70
2021/12/03 04:38:10;;;;;;;31.65;17.80;;;1.70;99.90;;;;;;5024643;28;20044;-70
2021/12/03 04:40:37;;;;;;;31.27;17.63;;;1.80;99.90;;;;;;5036102;28;20063;-70
2021/12/03 04:43:04;;;;;;;30.70;17.83;;;1.80;99.90;;;;;;5037661;28;20327;-69
2021/12/03 04:45:30;;;;;;;34.72;19.25;;;1.80;99.90;;;;;;5048872;28;20076;-70
2021/12/03 04:47:58;;;;;;;32.50;15.70;;;1.60;99.90;;;;;;5024457;28;20124;-70
2021/12/03 04:50:25;;;;;;;30.10;16.38;;;1.60;99.90;;;;;;5027045;28;20489;-69
2021/12/03 04:52:51;;;;;;;38.83;18.75;;;1.60;99.90;;;;;;5048098;28;20052;-70
2021/12/03 04:55:18;;;;;;;33.58;18.08;;;1.60;99.90;;;;;;5036641;28;20052;-69
2021/12/03 04:57:44;;;;;;;36.50;18.90;;;1.60;99.90;;;;;;5042867;28;20425;-70
2021/12/03 05:00:18;;;;;;;31.38;17.38;;;1.60;99.90;;;;;;5041718;28;20116;-70
2021/12/03 05:02:45;;;;;;;30.42;17.15;;;1.60;99.90;;;;;;5041774;28;20095;-70
2021/12/03 05:05:11;;;;;;;32.95;17.02;;;1.60;99.90;;;;;;5043606;28;20123;-69
2021/12/03 05:07:57;;;;;;;35.50;18.08;;;1.60;99.90;;;;;;5044854;28;20123;-69
2021/12/03 05:10:23;;;;;;;33.25;18.65;;;1.90;99.90;;;;;;5041471;28;20052;-70
2021/12/03 05:12:50;;;;;;;31.83;19.15;;;1.60;99.90;;;;;;5041838;28;20159;-69
2021/12/03 05:15:16;;;;;;;29.65;16.92;;;1.60;99.90;;;;;;5029937;28;20533;-70
2021/12/03 05:17:41;;;;;;;33.92;18.13;;;1.90;99.90;;;;;;5047264;28;20072;-70
2021/12/03 05:20:07;;;;;;;34.60;17.65;;;1.60;99.90;;;;;;5035703;28;20049;-70
2021/12/03 05:22:33;;;;;;;30.73;17.25;;;1.60;99.90;;;;;;5041503;28;20048;-70
2021/12/03 05:24:59;;;;;;;29.95;16.65;;;1.60;99.90;;;;;;5055034;28;20049;-71
2021/12/03 05:27:25;;;;;;;28.77;16.13;;;1.50;99.90;;;;;;5039509;28;20045;-70
2021/12/03 05:29:50;;;;;;;34.33;19.10;;;1.60;99.90;;;;;;5035463;28;20049;-72
2021/12/03 05:32:18;;;;;;;33.65;18.35;;;1.50;99.90;;;;;;5032351;28;20102;-70
2021/12/03 05:34:44;;;;;;;32.38;17.83;;;1.00;99.90;;;;;;5021849;28;20053;-69
2021/12/03 05:37:10;;;;;;;33.15;18.35;;;1.40;99.90;;;;;;5032759;28;20489;-70
2021/12/03 05:39:37;;;;;;;36.28;19.15;;;2.10;99.90;;;;;;5005936;28;21046;-70
2021/12/03 05:42:04;;;;;;;34.30;19.55;;;1.50;99.90;;;;;;5042642;28;20072;-70
2021/12/03 05:44:31;;;;;;;30.48;17.33;;;1.40;99.90;;;;;;5042375;28;20067;-69
2021/12/03 05:46:58;;;;;;;34.30;19.42;;;1.40;99.90;;;;;;5033893;28;20041;-69
2021/12/03 05:49:24;;;;;;;33.20;18.35;;;1.40;99.90;;;;;;5042789;28;20509;-70
2021/12/03 05:51:50;;;;;;;37.45;20.05;;;1.70;99.90;;;;;;5018761;28;20053;-69
2021/12/03 05:54:16;;;;;;;37.00;18.65;;;1.30;99.90;;;;;;5044431;28;20436;-69
2021/12/03 05:56:42;;;;;;;37.20;19.45;;;2.40;99.90;;;;;;5047234;28;20045;-70
2021/12/03 05:59:07;;;;;;;36.92;17.20;;;1.40;99.90;;;;;;5021023;28;20052;-70
2021/12/03 06:01:33;;;;;;;31.15;17.08;;;1.30;99.90;;;;;;5036645;28;20052;-70
2021/12/03 06:03:59;;;;;;;36.92;18.63;;;1.30;99.90;;;;;;5016411;28;20049;-72
2021/12/03 06:06:25;;;;;;;31.33;17.77;;;1.40;99.90;;;;;;5030142;28;20084;-70
2021/12/03 06:08:50;;;;;;;32.72;18.27;;;2.10;99.90;;;;;;5027810;28;20045;-70
2021/12/03 06:11:16;;;;;;;31.40;17.85;;;1.40;99.90;;;;;;5001328;28;20047;-70
2021/12/03 06:13:42;;;;;;;26.42;16.05;;;1.40;99.90;;;;;;5030782;28;20087;-70
2021/12/03 06:16:11;;;;;;;33.28;17.20;;;1.50;99.90;;;;;;5020759;28;20029;-70
2021/12/03 06:18:37;;;;;;;29.08;15.18;;;2.00;99.90;;;;;;5047922;28;20079;-70
2021/12/03 06:21:07;;;;;;;29.73;16.63;;;1.80;99.90;;;;;;5020230;28;20120;-70
2021/12/03 06:23:34;;;;;;;33.47;16.92;;;2.50;99.90;;;;;;5033876;28;20561;-70
2021/12/03 06:26:00;;;;;;;28.88;16.75;;;1.70;99.90;;;;;;5017584;28;20053;-70
2021/12/03 06:28:28;;;;;;;26.27;15.48;;;1.60;99.90;;;;;;5031953;28;20138;-71
2021/12/03 06:30:54;;;;;;;28.52;15.10;;;1.60;99.90;;;;;;5024108;28;20054;-70
2021/12/03 06:33:20;;;;;;;32.28;18.10;;;1.60;99.90;;;;;;5034852;28;20044;-70
2021/12/03 06:35:49;;;;;;;32.92;17.95;;;1.50;99.90;;;;;;5041410;28;20084;-71
2021/12/03 06:38:16;;;;;;;29.73;16.83;;;1.50;99.90;;;;;;5048652;28;20494;-70
2021/12/03 06:40:43;;;;;;;31.98;17.65;;;2.60;99.90;;;;;;5044359;28;20044;-70
2021/12/03 06:43:09;;;;;;;30.58;17.75;;;1.50;99.90;;;;;;5039774;28;20127;-69
2021/12/03 06:45:35;;;;;;;30.00;19.10;;;1.40;99.90;;;;;;5037829;28;20127;-69
2021/12/03 06:48:01;;;;;;;33.97;18.73;;;1.50;99.90;;;;;;5048559;28;20126;-71
2021/12/03 06:50:28;;;;;;;33.10;18.83;;;1.70;99.90;;;;;;5039116;28;20451;-70
2021/12/03 06:53:04;;;;;;;34.50;18.45;;;1.50;99.90;;;;;;5023262;28;20465;-70
2021/12/03 06:55:39;;;;;;;28.90;17.42;;;1.50;99.90;;;;;;5008182;28;20049;-70
2021/12/03 06:58:05;;;;;;;33.38;17.52;;;2.50;99.90;;;;;;5023920;28;20048;-70
2021/12/03 07:00:31;;;;;;;28.27;16.38;;;1.40;99.90;;;;;;5003589;28;20044;-70
2021/12/03 07:02:56;;;;;;;28.25;15.75;;;1.50;99.90;;;;;;5031202;28;20087;-70
2021/12/03 07:05:22;;;;;;;26.15;15.07;;;2.30;99.90;;;;;;5034246;28;20055;-69
2021/12/03 07:07:49;;;;;;;26.70;16.00;;;2.10;99.90;;;;;;5034860;28;20049;-70
2021/12/03 07:10:14;;;;;;;24.27;12.98;;;2.40;99.90;;;;;;5017649;28;20139;-70
2021/12/03 07:12:40;;;;;;;29.50;15.23;;;1.80;99.90;;;;;;5036671;28;20141;-69
2021/12/03 07:15:06;;;;;;;23.90;12.95;;;1.90;99.90;;;;;;5000780;28;20138;-70
2021/12/03 07:17:33;;;;;;;17.45;10.68;;;2.00;99.90;;;;;;5016173;28;20053;-70
2021/12/03 07:19:59;;;;;;;24.85;11.75;;;2.10;99.90;;;;;;5035548;28;20064;-73
2021/12/03 07:22:27;;;;;;;22.85;9.32;;;2.10;99.90;;;;;;5049460;28;20494;-70
2021/12/03 07:24:53;;;;;;;20.58;11.23;;;2.20;99.90;;;;;;5006729;28;20064;-71
2021/12/03 07:27:18;;;;;;;24.60;9.77;;;2.20;99.90;;;;;;5012249;28;20483;-71
2021/12/03 07:29:47;;;;;;;20.30;11.85;;;2.40;99.90;;;;;;5015610;28;20087;-70
2021/12/03 07:32:16;;;;;;;20.75;9.70;;;2.20;99.90;;;;;;5002222;28;20061;-72
2021/12/03 07:34:42;;;;;;;16.42;9.57;;;2.40;99.90;;;;;;5009811;28;20053;-71
2021/12/03 07:37:07;;;;;;;22.50;11.52;;;2.30;99.90;;;;;;5013001;28;20394;-71
2021/12/03 07:39:33;;;;;;;22.15;11.98;;;2.50;99.90;;;;;;5012244;28;20053;-70
2021/12/03 07:41:59;;;;;;;26.85;13.25;;;2.30;99.90;;;;;;5002154;28;20538;-71
2021/12/03 07:44:24;;;;;;;26.92;13.75;;;2.30;99.90;;;;;;4997477;28;20052;-70
2021/12/03 07:46:50;;;;;;;30.13;13.57;;;2.30;99.90;;;;;;5015730;28;20132;-71
2021/12/03 07:49:16;;;;;;;23.92;12.60;;;2.30;99.90;;;;;;5021933;28;20048;-71
2021/12/03 07:51:42;;;;;;;22.50;13.00;;;3.10;99.90;;;;;;5016764;28;20498;-71
2021/12/03 07:54:08;;;;;;;27.05;14.05;;;2.30;99.90;;;;;;5011645;28;20119;-71
2021/12/03 07:56:34;;;;;;;23.67;12.82;;;2.70;99.90;;;;;;5013803;28;20136;-71
2021/12/03 07:59:00;;;;;;;23.17;12.48;;;2.20;99.90;;;;;;5034173;28;20108;-70
2021/12/03 08:01:25;;;;;;;22.35;10.27;;;2.20;99.90;;;;;;5001572;28;20041;-70
2021/12/03 08:03:51;;;;;;;29.00;11.70;;;2.90;99.90;;;;;;5012802;28;20052;-71
2021/12/03 08:06:17;;;;;;;25.90;12.50;;;2.30;99.90;;;;;;5013728;28;20049;-70
2021/12/03 08:08:43;;;;;;;27.42;13.68;;;2.20;99.90;;;;;;5015242;28;20398;-71
2021/12/03 08:11:09;;;;;;;29.83;13.60;;;2.30;99.90;;;;;;5015338;28;20132;-71
2021/12/03 08:13:35;;;;;;;26.25;14.07;;;2.20;99.90;;;;;;5032333;28;20123;-71
2021/12/03 08:16:03;;;;;;;23.92;12.02;;;2.30;99.90;;;;;;5012982;28;20107;-71
2021/12/03 08:18:29;;;;;;;28.25;14.30;;;2.30;99.90;;;;;;5001575;28;20106;-72
2021/12/03 08:20:55;;;;;;;35.25;14.50;;;2.30;99.90;;;;;;5005644;28;20057;-70
2021/12/03 08:23:20;;;;;;;29.90;13.98;;;2.70;99.90;;;;;;5001624;28;20045;-71
2021/12/03 08:25:46;;;;;;;27.55;13.60;;;2.30;99.90;;;;;;5037391;28;20060;-71
2021/12/03 08:28:12;;;;;;;27.70;13.25;;;2.40;99.90;;;;;;5023254;28;20049;-71
2021/12/03 08:30:39;;;;;;;34.75;14.68;;;2.40;99.90;;;;;;5038954;28;20041;-71
2021/12/03 08:33:05;;;;;;;26.48;13.10;;;3.00;99.90;;;;;;5036354;28;20072;-71
2021/12/03 08:35:31;;;;;;;29.00;13.65;;;2.50;99.90;;;;;;5027231;28;20131;-71
2021/12/03 08:38:00;;;;;;;29.80;13.40;;;2.50;99.90;;;;;;5037002;28;20076;-72
2021/12/03 08:40:26;;;;;;;21.63;11.80;;;3.30;99.90;;;;;;5050014;28;20131;-71
2021/12/03 08:42:51;;;;;;;28.20;12.55;;;2.40;99.90;;;;;;5049843;28;20170;-72
2021/12/03 08:45:20;;;;;;;25.17;12.35;;;2.80;99.90;;;;;;5035632;28;20083;-72
2021/12/03 08:47:50;;;;;;;28.45;13.80;;;2.50;99.90;;;;;;5028912;28;20040;-73
2021/12/03 08:50:26;;;;;;;25.38;12.07;;;2.50;99.90;;;;;;5046736;28;20072;-72
2021/12/03 08:55:31;;;;;;;31.20;14.70;;;2.70;99.90;;;;;;5047358;28;20048;-73
2021/12/03 08:57:56;;;;;;;39.58;16.02;;;2.70;99.90;;;;;;5037182;28;20734;-72
2021/12/03 09:00:22;;;;;;;36.20;13.48;;;2.70;99.90;;;;;;5053902;28;20052;-72
2021/12/03 09:02:49;;;;;;;30.63;13.88;;;3.00;99.90;;;;;;5044109;28;20088;-74
2021/12/03 09:05:15;;;;;;;29.33;13.35;;;3.20;99.90;;;;;;5021253;28;20102;-72
2021/12/03 09:07:42;;;;;;;33.72;12.85;;;2.80;99.90;;;;;;5028291;28;20178;-72
2021/12/03 09:10:13;;;;;;;26.83;12.23;;;2.80;99.90;;;;;;5020129;28;20270;-73
2021/12/03 09:12:39;;;;;;;27.95;12.90;;;2.80;99.90;;;;;;5047316;28;20375;-73
2021/12/03 09:15:10;;;;;;;32.80;15.18;;;2.90;99.90;;;;;;5038294;28;20057;-73
2021/12/03 09:20:29;;;;;;;41.15;16.52;;;2.90;99.90;;;;;;5029600;28;20044;-74
2021/12/03 09:23:08;;;;;;;39.50;17.92;;;2.90;99.90;;;;;;5026932;28;20049;-73
2021/12/03 09:25:36;;;;;;;41.50;18.25;;;3.30;99.90;;;;;;5023618;28;20157;-72
2021/12/03 09:28:08;;;;;;;37.63;17.65;;;2.90;99.90;;;;;;5018059;28;20413;-73
2021/12/03 09:30:39;;;;;;;42.05;17.65;;;2.80;99.90;;;;;;5040223;28;20053;-73
2021/12/03 09:33:10;;;;;;;40.28;18.30;;;3.60;99.90;;;;;;5034835;28;20091;-73
2021/12/03 09:35:42;;;;;;;41.95;18.15;;;3.60;99.90;;;;;;5028612;28;20048;-72
2021/12/03 09:38:08;;;;;;;42.25;17.95;;;2.90;99.90;;;;;;5040618;28;20414;-72
2021/12/03 09:40:36;;;;;;;47.55;20.60;;;2.90;99.90;;;;;;5055487;28;20044;-72
2021/12/03 09:43:03;;;;;;;45.28;20.13;;;3.00;99.90;;;;;;5061088;28;20049;-72
2021/12/03 09:45:29;;;;;;;43.63;19.52;;;3.00;99.90;;;;;;5022378;28;20048;-72
2021/12/03 09:47:55;;;;;;;46.13;21.88;;;3.00;99.90;;;;;;5043993;28;20547;-72
2021/12/03 09:50:21;;;;;;;42.88;18.00;;;3.10;99.90;;;;;;5003888;28;20048;-73
2021/12/03 09:53:21;;;;;;;43.00;18.50;;;3.10;99.90;;;;;;5017076;28;20048;-71
2021/12/03 09:55:42;;;;;;;45.33;19.15;;;3.10;99.90;;;;;;5020356;28;20137;-72
2021/12/03 09:59:13;;;;;;;44.92;21.55;;;3.20;99.90;;;;;;5033599;28;20041;-71
2021/12/03 10:01:27;;;;;;;44.13;19.38;;;3.20;99.90;;;;;;5022280;28;20529;-71
2021/12/03 10:14:38;;;;;;;48.78;21.00;;;3.30;99.90;;;;;;4984720;28;20418;-72
2021/12/03 10:46:52;;;;;;;44.63;19.67;;;3.80;99.90;;;;;;5040959;28;20056;-71
2021/12/03 11:14:11;;;;;;;38.47;14.52;;;3.90;99.90;;;;;;5035265;28;20088;-70
2021/12/03 11:16:46;;;;;;;35.35;13.50;;;4.10;99.90;;;;;;5017654;28;20056;-72
2021/12/03 11:19:40;;;;;;;38.03;15.35;;;4.20;99.90;;;;;;5034379;28;20119;-72
2021/12/03 11:34:04;;;;;;;30.17;10.38;;;4.50;99.90;;;;;;4996422;28;20045;-70
2021/12/03 11:41:58;;;;;;;33.17;12.35;;;3.70;99.90;;;;;;5025607;28;20420;-70
2021/12/03 14:00:32;;;;;;;19.20;9.02;;;3.90;99.90;;;;;;5027160;28;20048;-70
2021/12/03 14:45:14;;;;;;;8.77;4.45;;;4.60;99.90;;;;;;5030705;28;20135;-70
2021/12/03 14:55:38;;;;;;;11.63;5.90;;;4.10;99.90;;;;;;5033410;28;20053;-72
2021/12/03 14:58:14;;;;;;;12.43;5.75;;;4.20;99.90;;;;;;5034053;28;20094;-70
2021/12/03 15:08:17;;;;;;;12.95;5.78;;;4.30;99.90;;;;;;5033883;28;20056;-70
2021/12/03 15:21:37;;;;;;;15.45;6.45;;;4.70;99.90;;;;;;5035477;28;20041;-70
2021/12/03 15:34:56;;;;;;;20.55;7.93;;;4.80;99.90;;;;;;5036081;28;20053;-70
2021/12/03 16:05:11;;;;;;;9.10;6.25;;;4.80;99.90;;;;;;5034104;28;20114;-74
2021/12/03 16:07:58;;;;;;;13.32;6.97;;;4.90;99.90;;;;;;5015918;28;20059;-70
2021/12/03 16:18:30;;;;;;;14.68;8.68;;;4.90;99.90;;;;;;5050216;28;20489;-70
2021/12/03 16:53:49;;;;;;;22.25;12.20;;;4.80;99.90;;;;;;5053538;28;20060;-70
2021/12/03 16:56:20;;;;;;;16.10;8.05;;;4.90;99.90;;;;;;5027955;28;20073;-71
2021/12/03 16:58:46;;;;;;;26.67;13.85;;;4.80;99.90;;;;;;5039691;28;20055;-71
2021/12/03 17:01:23;;;;;;;20.95;10.88;;;4.90;99.90;;;;;;5034487;28;20045;-71
2021/12/03 17:03:56;;;;;;;20.42;12.32;;;4.80;99.90;;;;;;5056622;28;20151;-70
2021/12/03 17:14:12;;;;;;;25.92;14.23;;;4.80;99.90;;;;;;5032884;28;20049;-71
2021/12/03 17:49:44;;;;;;;32.72;15.90;;;4.90;99.90;;;;;;5018045;28;20045;-71
2021/12/03 17:55:11;;;;;;;22.90;12.55;;;4.90;99.90;;;;;;5027150;28;20049;-70
2021/12/03 17:57:46;;;;;;;24.75;12.63;;;5.50;99.90;;;;;;5034994;28;20496;-71
2021/12/03 18:00:33;;;;;;;27.23;14.88;;;5.00;99.90;;;;;;5038270;28;20052;-71
2021/12/03 18:06:13;;;;;;;25.77;12.82;;;5.00;99.90;;;;;;5019272;28;20552;-72
2021/12/03 18:57:26;;;;;;;30.60;15.02;;;5.30;99.90;;;;;;5044032;28;20158;-70
2021/12/03 18:59:55;;;;;;;37.63;17.30;;;5.30;99.90;;;;;;5046657;28;20048;-71
2021/12/03 19:02:24;;;;;;;24.10;11.27;;;5.30;99.90;;;;;;5018812;28;20049;-71
2021/12/03 19:05:04;;;;;;;39.47;18.38;;;5.40;99.90;;;;;;5041473;28;20053;-71
2021/12/03 19:07:52;;;;;;;28.02;14.15;;;5.20;99.90;;;;;;5029342;28;20048;-70
2021/12/03 19:10:21;;;;;;;29.40;14.57;;;5.30;99.90;;;;;;5020475;28;20044;-70
2021/12/03 19:12:56;;;;;;;39.63;16.67;;;5.30;99.90;;;;;;5037477;28;20056;-70
2021/12/03 19:15:22;;;;;;;34.92;15.88;;;5.30;99.90;;;;;;5017367;28;20383;-70
2021/12/03 19:17:48;;;;;;;38.08;17.38;;;5.30;99.90;;;;;;5016913;28;20110;-70
2021/12/03 19:20:17;;;;;;;35.42;15.85;;;5.30;99.90;;;;;;5036302;28;20124;-71
2021/12/03 19:22:43;;;;;;;33.47;15.23;;;5.60;99.90;;;;;;5035825;28;20449;-70
2021/12/03 19:25:09;;;;;;;32.30;14.15;;;5.30;99.90;;;;;;5008488;28;20092;-71
2021/12/03 19:27:37;;;;;;;36.72;18.02;;;5.70;99.90;;;;;;5001222;28;20053;-70
2021/12/03 19:30:04;;;;;;;41.40;18.00;;;5.30;99.90;;;;;;4981889;28;20073;-71
2021/12/03 19:32:31;;;;;;;44.92;20.92;;;5.30;99.90;;;;;;4997514;28;20049;-71
2021/12/03 19:34:58;;;;;;;38.72;17.60;;;5.70;99.90;;;;;;4998808;28;20053;-71
2021/12/03 19:37:27;;;;;;;47.28;20.83;;;5.50;99.90;;;;;;5012689;28;20048;-71
2021/12/03 19:39:53;;;;;;;46.35;21.83;;;5.30;99.90;;;;;;5013100;28;20736;-71
2021/12/03 19:42:23;;;;;;;39.95;18.58;;;5.70;99.90;;;;;;4995128;28;20422;-71
2021/12/03 19:44:57;;;;;;;47.47;19.98;;;5.60;99.90;;;;;;4996568;28;20931;-71
2021/12/03 19:48:09;;;;;;;44.92;19.20;;;5.40;99.90;;;;;;4999934;28;20049;-70
2021/12/03 19:53:11;;;;;;;33.88;14.35;;;5.50;99.90;;;;;;5013530;28;20060;-70
2021/12/03 19:55:40;;;;;;;44.42;20.58;;;5.80;99.90;;;;;;5031463;28;20060;-70
2021/12/03 19:58:07;;;;;;;42.40;20.70;;;5.50;99.90;;;;;;5008195;28;20421;-71
2021/12/03 20:00:33;;;;;;;28.45;13.30;;;5.50;99.90;;;;;;5017104;28;20049;-71
2021/12/03 20:02:59;;;;;;;46.97;20.50;;;5.60;99.90;;;;;;5012103;28;20048;-72
2021/12/03 20:05:25;;;;;;;46.10;20.83;;;5.50;99.90;;;;;;5012824;28;20041;-70
2021/12/03 20:07:53;;;;;;;38.53;16.88;;;5.50;99.90;;;;;;5027121;28;20509;-71
2021/12/03 20:10:21;;;;;;;48.53;20.27;;;5.60;99.90;;;;;;5008939;28;20049;-70
2021/12/03 20:12:48;;;;;;;51.92;22.20;;;5.60;99.90;;;;;;5008181;28;20049;-72
2021/12/03 20:15:22;;;;;;;48.10;20.50;;;5.60;99.90;;;;;;5014788;28;20046;-71
2021/12/03 20:17:56;;;;;;;49.45;21.70;;;5.50;99.90;;;;;;5013502;28;20045;-72
2021/12/03 20:20:24;;;;;;;45.97;20.48;;;5.60;99.90;;;;;;4998300;28;20437;-71
2021/12/03 20:23:07;;;;;;;31.15;12.27;;;5.50;99.90;;;;;;5012851;28;20514;-70
2021/12/03 20:28:10;;;;;;;47.85;21.42;;;5.60;99.90;;;;;;5013681;28;20796;-73
2021/12/03 20:30:43;;;;;;;49.97;19.95;;;5.80;99.90;;;;;;5050325;28;20049;-72
2021/12/03 20:38:31;;;;;;;45.30;17.73;;;5.60;99.90;;;;;;5033902;28;20049;-71
2021/12/03 20:41:03;;;;;;;46.70;18.02;;;5.50;99.90;;;;;;5036163;28;20053;-71
2021/12/03 20:43:41;;;;;;;38.42;16.40;;;5.50;99.90;;;;;;5029475;28;20126;-73
2021/12/03 20:46:26;;;;;;;40.13;17.63;;;5.70;99.90;;;;;;5035590;28;20057;-71